Time;durP1;ratioP1;P1;durP2;ratioP2;P2;SDS_P1;SDS_P2;PMS_P1;PMS_P2;Temp;Humidity;BMP_temperature;BMP_pressure;BME280_temperature;BME280_humidity;BME280_pressure;Samples;Min_cycle;Max_cycle;Signal;HPM_P1;HPM_P2
2022/09/28 00:01:17;;;;;;;1.00;0.80;;;;;;;12.62;64.86;95803.84;5034768;28;20415;-72
2022/09/28 00:03:44;;;;;;;1.50;1.00;;;;;;;12.67;64.75;95793.53;5030154;28;20423;-72
2022/09/28 00:06:12;;;;;;;1.70;1.03;;;;;;;12.66;65.03;95792.72;5034193;28;20495;-71
2022/09/28 00:08:38;;;;;;;1.80;1.00;;;;;;;12.56;65.27;95789.69;5033168;28;20917;-72
2022/09/28 00:11:05;;;;;;;2.77;1.17;;;;;;;12.42;65.82;95781.78;5033165;28;20410;-71
2022/09/28 00:13:32;;;;;;;1.37;0.90;;;;;;;12.32;66.28;95775.28;5033732;28;20280;-70
2022/09/28 00:16:01;;;;;;;1.10;0.90;;;;;;;12.35;65.99;95775.69;5034575;28;20446;-71
2022/09/28 00:18:27;;;;;;;1.47;1.00;;;;;;;12.37;65.77;95763.16;5033116;28;20422;-72
2022/09/28 00:21:03;;;;;;;2.30;1.03;;;;;;;12.40;66.11;95759.34;5034505;28;20448;-72
2022/09/28 00:23:29;;;;;;;2.37;0.70;;;;;;;12.48;65.71;95750.44;5032869;28;20430;-71
2022/09/28 00:25:54;;;;;;;4.60;1.00;;;;;;;12.52;65.86;95749.88;5033955;28;20468;-71
2022/09/28 00:28:19;;;;;;;6.33;1.10;;;;;;;12.49;66.45;95750.25;5030844;28;20215;-71
2022/09/28 00:30:45;;;;;;;1.00;0.80;;;;;;;12.52;66.15;95743.78;5030869;28;20187;-71
2022/09/28 00:33:10;;;;;;;1.80;1.00;;;;;;;12.48;66.07;95745.19;5033496;28;20180;-70
2022/09/28 00:35:36;;;;;;;1.50;0.80;;;;;;;12.50;66.05;95735.28;5033777;28;20247;-72
2022/09/28 00:38:02;;;;;;;1.97;0.93;;;;;;;12.47;66.16;95730.47;5030030;28;20187;-71
2022/09/28 00:40:28;;;;;;;5.93;1.00;;;;;;;12.52;66.30;95718.34;5034775;28;20196;-72
2022/09/28 00:42:53;;;;;;;3.17;1.00;;;;;;;12.41;66.78;95719.72;5038227;28;21031;-72
2022/09/28 00:45:20;;;;;;;1.43;1.10;;;;;;;12.38;67.04;95711.44;5033245;28;20204;-71
2022/09/28 00:47:49;;;;;;;1.00;0.80;;;;;;;12.41;66.94;95711.06;5027008;28;20286;-72
2022/09/28 00:50:28;;;;;;;2.80;1.13;;;;;;;12.44;66.90;95695.69;5031949;28;20454;-71
2022/09/28 00:53:00;;;;;;;2.17;0.90;;;;;;;12.50;67.11;95682.75;5028673;28;20422;-72
2022/09/28 00:55:33;;;;;;;1.37;0.80;;;;;;;12.54;66.95;95679.50;5033250;28;20441;-72
2022/09/28 00:58:00;;;;;;;2.00;1.33;;;;;;;12.46;67.53;95671.03;5027043;28;20925;-72
2022/09/28 01:00:26;;;;;;;1.57;0.90;;;;;;;12.57;66.84;95668.59;5032008;28;20425;-71
2022/09/28 01:02:51;;;;;;;1.30;1.10;;;;;;;12.55;67.38;95667.19;5032208;28;20423;-71
2022/09/28 01:05:17;;;;;;;1.30;0.77;;;;;;;12.66;67.02;95669.22;5032730;28;20247;-71
2022/09/28 01:07:43;;;;;;;2.00;1.00;;;;;;;12.59;67.60;95660.53;5031733;28;20298;-71
2022/09/28 01:10:09;;;;;;;1.47;0.80;;;;;;;12.60;67.41;95657.69;5022063;28;20446;-71
2022/09/28 01:12:35;;;;;;;1.10;0.80;;;;;;;12.43;67.72;95649.41;5033143;28;20458;-71
2022/09/28 01:15:01;;;;;;;3.43;0.90;;;;;;;12.53;68.13;95637.69;5032811;28;20738;-71
2022/09/28 01:17:43;;;;;;;1.20;0.90;;;;;;;12.57;67.66;95636.28;5031182;28;20617;-71
2022/09/28 01:20:29;;;;;;;4.97;1.17;;;;;;;12.59;68.03;95631.63;5030122;28;20462;-71
2022/09/28 01:23:08;;;;;;;2.57;0.87;;;;;;;12.56;68.24;95642.53;5036207;28;20933;-72
2022/09/28 01:25:50;;;;;;;1.10;0.80;;;;;;;12.40;68.50;95628.78;5032965;28;20539;-71
2022/09/28 01:28:18;;;;;;;3.27;1.00;;;;;;;12.58;67.78;95617.66;5031592;28;20466;-72
2022/09/28 01:30:58;;;;;;;3.23;1.33;;;;;;;12.60;68.47;95617.47;5033061;28;21016;-72
2022/09/28 01:33:30;;;;;;;2.00;1.10;;;;;;;12.66;68.12;95614.03;5031395;28;20945;-72
2022/09/28 01:36:00;;;;;;;2.10;0.80;;;;;;;12.60;68.22;95613.00;5032563;28;20553;-72
2022/09/28 01:38:30;;;;;;;2.57;0.90;;;;;;;12.66;67.87;95608.75;5028132;28;20450;-71
2022/09/28 01:40:57;;;;;;;4.40;1.20;;;;;;;12.56;68.68;95600.50;5037714;28;20425;-71
2022/09/28 01:43:25;;;;;;;1.83;0.80;;;;;;;12.66;68.43;95598.25;5033190;28;20431;-71
2022/09/28 01:46:11;;;;;;;3.60;1.00;;;;;;;12.75;67.89;95597.00;5031258;28;21009;-72
2022/09/28 01:48:42;;;;;;;4.90;1.23;;;;;;;12.75;68.08;95594.38;5032046;28;20469;-72
2022/09/28 01:51:15;;;;;;;2.30;1.30;;;;;;;12.71;67.99;95585.31;5031151;28;20426;-72
2022/09/28 01:53:46;;;;;;;2.33;1.10;;;;;;;12.72;68.29;95576.41;5029969;28;20457;-71
2022/09/28 01:56:20;;;;;;;8.33;1.27;;;;;;;12.73;67.88;95578.00;5029014;28;20450;-71
2022/09/28 01:58:53;;;;;;;3.00;1.10;;;;;;;12.75;68.45;95580.44;5032399;28;20449;-72
2022/09/28 02:01:40;;;;;;;2.93;1.07;;;;;;;12.73;68.46;95583.25;5030741;28;20457;-71
2022/09/28 02:04:11;;;;;;;3.00;1.10;;;;;;;12.59;69.03;95571.19;5029262;28;20434;-70
2022/09/28 02:06:45;;;;;;;2.70;1.07;;;;;;;12.66;68.49;95561.47;5029062;28;20930;-72
2022/09/28 02:09:16;;;;;;;6.20;1.30;;;;;;;12.80;68.25;95564.06;5026625;28;20530;-70
2022/09/28 02:11:44;;;;;;;10.23;1.30;;;;;;;12.66;68.48;95558.81;5027831;28;20918;-71
2022/09/28 02:14:11;;;;;;;4.83;1.30;;;;;;;12.80;68.20;95558.78;5028492;28;20427;-72
2022/09/28 02:16:39;;;;;;;5.23;1.27;;;;;;;12.82;68.43;95554.16;5037104;28;20507;-72
2022/09/28 02:19:07;;;;;;;6.37;1.40;;;;;;;12.85;67.78;95543.22;5034169;28;20430;-72
2022/09/28 02:21:47;;;;;;;5.00;1.20;;;;;;;12.88;67.71;95553.31;5033327;28;20463;-70
2022/09/28 02:24:17;;;;;;;2.63;1.10;;;;;;;12.86;67.58;95544.81;5030469;28;20539;-71
2022/09/28 02:26:44;;;;;;;2.70;1.00;;;;;;;12.80;68.14;95540.41;5029873;28;20462;-72
2022/09/28 02:29:10;;;;;;;3.20;1.23;;;;;;;12.67;68.54;95536.78;5030653;28;20427;-73
2022/09/28 02:31:36;;;;;;;3.50;1.10;;;;;;;12.74;68.93;95537.56;5024477;28;20565;-73
2022/09/28 02:34:01;;;;;;;1.30;0.90;;;;;;;12.74;68.64;95521.81;5031816;28;20535;-71
2022/09/28 02:36:28;;;;;;;4.07;1.40;;;;;;;12.73;68.64;95529.91;5029117;28;20246;-71
2022/09/28 02:38:54;;;;;;;5.10;1.40;;;;;;;12.78;68.59;95524.03;5029797;28;20176;-71
2022/09/28 02:41:31;;;;;;;5.43;1.40;;;;;;;12.82;68.61;95519.97;5037518;28;20422;-71
2022/09/28 02:44:17;;;;;;;6.90;1.50;;;;;;;12.82;68.94;95515.50;5026208;28;20503;-71
2022/09/28 02:46:58;;;;;;;7.37;1.10;;;;;;;12.81;68.61;95516.53;5023598;28;20458;-71
2022/09/28 02:49:56;;;;;;;4.17;1.20;;;;;;;12.83;68.92;95518.97;5035144;28;22083;-70
2022/09/28 02:52:30;;;;;;;3.47;1.20;;;;;;;12.89;68.41;95510.22;5030505;28;20433;-70
2022/09/28 02:55:18;;;;;;;3.23;1.30;;;;;;;12.97;68.64;95501.31;5030167;28;20942;-71
2022/09/28 02:58:18;;;;;;;2.77;1.10;;;;;;;12.80;68.88;95508.84;5023324;28;20968;-71
2022/09/28 03:01:05;;;;;;;4.53;1.40;;;;;;;12.82;68.56;95498.94;5027489;28;20422;-71
2022/09/28 03:03:31;;;;;;;6.67;1.40;;;;;;;12.97;68.19;95504.75;5006259;28;20948;-70
2022/09/28 03:06:03;;;;;;;5.90;1.40;;;;;;;13.01;68.18;95500.69;5030805;28;20533;-71
2022/09/28 03:08:34;;;;;;;3.80;1.20;;;;;;;13.02;68.07;95502.28;5028341;28;20200;-71
2022/09/28 03:11:13;;;;;;;2.23;0.97;;;;;;;13.02;68.20;95501.50;5029990;28;20970;-71
2022/09/28 03:13:38;;;;;;;2.50;1.20;;;;;;;12.86;68.75;95506.19;5031209;28;20429;-71
2022/09/28 03:16:07;;;;;;;3.70;1.40;;;;;;;12.79;68.72;95492.25;5028986;28;20541;-71
2022/09/28 03:18:32;;;;;;;2.77;1.20;;;;;;;12.75;68.91;95494.50;5034254;28;20233;-69
2022/09/28 03:20:59;;;;;;;5.10;1.17;;;;;;;12.77;68.83;95491.69;5034690;28;20430;-71
2022/09/28 03:23:24;;;;;;;1.83;1.00;;;;;;;12.84;69.04;95489.03;5029245;28;20305;-70
2022/09/28 03:25:50;;;;;;;3.17;1.03;;;;;;;12.76;68.82;95495.31;5031030;28;20454;-70
2022/09/28 03:28:25;;;;;;;8.03;1.70;;;;;;;12.79;68.84;95496.72;5030428;28;20702;-70
2022/09/28 03:30:51;;;;;;;2.77;1.20;;;;;;;12.86;68.86;95497.50;5009641;28;20191;-71
2022/09/28 03:33:18;;;;;;;3.20;1.30;;;;;;;12.62;69.47;95491.91;5038101;28;20851;-70
2022/09/28 03:35:48;;;;;;;3.30;1.30;;;;;;;12.63;69.90;95490.91;5030126;28;20221;-71
2022/09/28 03:38:14;;;;;;;5.93;1.20;;;;;;;12.51;70.32;95493.38;5027578;28;20480;-69
2022/09/28 03:40:39;;;;;;;4.23;1.23;;;;;;;12.59;70.38;95494.97;5033802;28;20418;-72
2022/09/28 03:43:04;;;;;;;6.40;1.80;;;;;;;12.69;69.99;95492.72;5031866;28;20198;-72
2022/09/28 03:45:30;;;;;;;7.30;1.50;;;;;;;12.72;69.83;95492.31;5029848;28;20219;-71
2022/09/28 03:47:55;;;;;;;3.73;1.30;;;;;;;12.87;69.57;95485.97;5024027;28;20393;-72
2022/09/28 03:50:21;;;;;;;3.80;1.83;;;;;;;12.97;69.27;95482.91;5029659;28;20279;-70
2022/09/28 03:52:46;;;;;;;3.90;1.27;;;;;;;13.02;69.18;95490.97;5030328;28;20271;-71
2022/09/28 03:55:12;;;;;;;3.53;1.90;;;;;;;13.07;69.15;95485.88;5029641;28;20722;-71
2022/09/28 03:57:37;;;;;;;5.00;1.83;;;;;;;13.13;69.03;95476.34;5029095;28;20562;-71
2022/09/28 04:00:06;;;;;;;3.17;1.10;;;;;;;13.06;68.94;95477.19;5030702;28;20215;-71
2022/09/28 04:02:33;;;;;;;5.80;1.33;;;;;;;12.94;69.42;95483.31;5022280;28;20191;-73
2022/09/28 04:04:58;;;;;;;4.30;1.20;;;;;;;13.01;69.35;95490.16;5028186;28;20431;-72
2022/09/28 04:07:24;;;;;;;1.30;1.00;;;;;;;13.06;68.96;95521.91;5028661;28;20523;-72
2022/09/28 04:09:49;;;;;;;6.97;1.20;;;;;;;13.11;69.01;95528.34;5030535;28;20213;-73
2022/09/28 04:12:15;;;;;;;2.83;1.00;;;;;;;13.05;68.44;95522.91;5029340;28;20271;-72
2022/09/28 04:14:40;;;;;;;2.57;1.00;;;;;;;13.01;67.93;95519.06;5030233;28;20640;-72
2022/09/28 04:17:06;;;;;;;5.53;1.17;;;;;;;13.03;68.08;95514.41;5027178;28;20616;-72
2022/09/28 04:19:31;;;;;;;1.63;1.30;;;;;;;13.03;67.57;95522.31;5030078;28;20210;-72
2022/09/28 04:21:57;;;;;;;4.07;2.10;;;;;;;13.05;67.43;95522.91;5034744;28;20218;-71
2022/09/28 04:24:22;;;;;;;2.87;2.03;;;;;;;13.10;67.62;95518.84;5028772;28;20187;-72
2022/09/28 04:26:48;;;;;;;3.00;1.57;;;;;;;13.08;67.56;95513.00;5029180;28;20211;-71
2022/09/28 04:29:17;;;;;;;1.50;1.00;;;;;;;13.08;67.59;95515.63;5031458;28;20597;-71
2022/09/28 04:31:48;;;;;;;2.10;0.77;;;;;;;13.12;67.41;95511.53;5027499;28;20195;-72
2022/09/28 04:34:16;;;;;;;6.43;1.10;;;;;;;13.09;67.33;95509.34;5029372;28;20428;-72
2022/09/28 04:36:43;;;;;;;7.67;1.20;;;;;;;13.08;67.16;95518.25;5026899;28;20457;-72
2022/09/28 04:39:09;;;;;;;1.47;1.10;;;;;;;13.06;67.58;95518.44;5029164;28;20435;-74
2022/09/28 04:41:35;;;;;;;2.50;0.97;;;;;;;13.05;67.07;95512.41;5030489;28;20462;-72
2022/09/28 04:44:01;;;;;;;3.00;1.10;;;;;;;12.99;66.80;95523.72;5033696;28;20510;-71
2022/09/28 04:46:26;;;;;;;2.30;1.63;;;;;;;13.03;66.71;95532.84;5031730;28;20211;-72
2022/09/28 04:48:51;;;;;;;1.67;1.57;;;;;;;13.00;66.97;95524.56;5036971;28;20183;-71
2022/09/28 04:51:17;;;;;;;6.83;1.23;;;;;;;13.03;66.76;95518.88;5032536;28;20654;-71
2022/09/28 04:53:42;;;;;;;3.00;0.90;;;;;;;13.02;66.86;95520.69;5033562;28;20184;-72
2022/09/28 04:56:12;;;;;;;2.03;1.00;;;;;;;13.05;66.90;95527.34;5032501;28;20192;-71
2022/09/28 04:58:38;;;;;;;2.40;0.87;;;;;;;13.04;66.45;95525.75;5030964;28;20552;-72
2022/09/28 05:01:05;;;;;;;2.80;0.90;;;;;;;13.04;66.56;95525.75;5034448;28;20433;-72
2022/09/28 05:03:31;;;;;;;1.50;0.90;;;;;;;13.00;66.80;95527.97;5025932;28;20188;-72
2022/09/28 05:05:57;;;;;;;1.67;1.00;;;;;;;13.02;66.75;95518.06;5032988;28;20441;-73
2022/09/28 05:08:23;;;;;;;1.63;0.87;;;;;;;13.02;66.70;95518.06;5032014;28;20457;-71
2022/09/28 05:10:55;;;;;;;2.57;0.90;;;;;;;13.00;66.17;95520.09;5033321;28;20757;-72
2022/09/28 05:13:21;;;;;;;2.40;0.70;;;;;;;12.96;66.28;95516.28;5032654;28;20191;-71
2022/09/28 05:15:46;;;;;;;1.07;0.63;;;;;;;12.95;66.22;95522.56;5032653;28;20439;-71
2022/09/28 05:18:13;;;;;;;5.83;1.00;;;;;;;12.96;66.42;95521.53;5033795;28;20216;-73
2022/09/28 05:20:41;;;;;;;3.60;1.30;;;;;;;12.96;66.61;95534.69;5037407;28;20186;-74
2022/09/28 05:23:09;;;;;;;2.40;2.20;;;;;;;12.98;66.57;95523.94;5029266;28;20415;-72
2022/09/28 05:25:34;;;;;;;1.90;1.70;;;;;;;12.97;66.76;95530.22;5032347;28;20458;-73
2022/09/28 05:28:02;;;;;;;1.43;1.00;;;;;;;12.95;66.44;95527.81;5031901;28;20454;-71
2022/09/28 05:30:27;;;;;;;2.40;1.50;;;;;;;12.97;66.63;95520.53;5021170;28;20188;-73
2022/09/28 05:32:53;;;;;;;2.23;1.10;;;;;;;13.00;66.73;95520.09;5029153;28;20430;-73
2022/09/28 05:35:18;;;;;;;3.50;1.23;;;;;;;12.99;67.00;95518.47;5031775;28;20214;-71
2022/09/28 05:37:44;;;;;;;2.23;1.40;;;;;;;12.99;66.54;95521.09;5029686;28;20176;-71
2022/09/28 05:40:11;;;;;;;1.80;1.20;;;;;;;12.97;66.56;95517.06;5032860;28;20176;-70
2022/09/28 05:42:36;;;;;;;3.10;1.20;;;;;;;12.96;67.00;95518.91;5038816;28;20484;-71
2022/09/28 05:45:02;;;;;;;2.87;1.37;;;;;;;12.98;66.98;95526.59;5032086;28;20422;-72
2022/09/28 05:47:28;;;;;;;1.57;1.10;;;;;;;13.00;66.75;95527.19;5027838;28;20578;-72
2022/09/28 05:49:54;;;;;;;3.43;1.40;;;;;;;13.01;66.62;95540.13;5045394;28;20524;-71
2022/09/28 05:52:19;;;;;;;3.37;1.13;;;;;;;13.02;66.52;95544.34;5041029;28;20179;-72
2022/09/28 05:54:45;;;;;;;1.27;1.00;;;;;;;13.01;66.80;95544.56;5047854;28;20237;-71
2022/09/28 05:57:11;;;;;;;3.10;1.40;;;;;;;13.00;66.63;95540.34;5042208;28;20281;-70
2022/09/28 05:59:36;;;;;;;3.10;1.20;;;;;;;12.95;66.96;95537.50;5000967;28;20192;-71
2022/09/28 06:02:03;;;;;;;2.73;1.60;;;;;;;12.94;67.11;95539.34;5023730;28;20982;-71
2022/09/28 06:04:28;;;;;;;3.00;1.20;;;;;;;12.97;67.02;95551.25;5048418;28;20236;-72
2022/09/28 06:06:54;;;;;;;5.03;2.13;;;;;;;12.99;67.18;95550.03;5040956;28;20466;-70
2022/09/28 06:09:22;;;;;;;1.90;1.10;;;;;;;13.01;66.80;95548.00;5041461;28;20270;-70
2022/09/28 06:11:48;;;;;;;1.67;1.00;;;;;;;13.03;66.77;95553.88;5046098;28;20658;-70
2022/09/28 06:14:13;;;;;;;1.10;0.93;;;;;;;13.02;66.72;95547.00;5042903;28;20429;-72
2022/09/28 06:16:39;;;;;;;1.60;1.10;;;;;;;13.04;66.93;95546.81;5047501;28;20207;-72
2022/09/28 06:19:07;;;;;;;3.33;1.37;;;;;;;13.08;66.96;95553.25;5045746;28;20217;-70
2022/09/28 06:21:32;;;;;;;2.60;1.13;;;;;;;13.03;66.82;95556.50;5035402;28;20425;-71
2022/09/28 06:23:57;;;;;;;2.97;1.00;;;;;;;13.02;67.15;95560.13;5040982;28;20441;-71
2022/09/28 06:26:23;;;;;;;3.73;1.43;;;;;;;13.01;66.92;95561.16;5034448;28;20493;-70
2022/09/28 06:28:48;;;;;;;4.63;1.50;;;;;;;13.04;67.23;95558.13;5046960;28;20215;-70
2022/09/28 06:31:14;;;;;;;2.53;1.60;;;;;;;13.09;67.14;95559.31;5008626;28;20197;-72
2022/09/28 06:33:40;;;;;;;2.60;1.57;;;;;;;13.09;67.20;95565.38;5029987;28;20186;-71
2022/09/28 06:36:08;;;;;;;3.00;1.70;;;;;;;13.12;67.30;95569.41;5043281;28;20226;-71
2022/09/28 06:38:33;;;;;;;2.13;1.37;;;;;;;13.13;67.22;95573.66;5041003;28;20425;-72
2022/09/28 06:40:59;;;;;;;3.90;1.53;;;;;;;13.09;67.16;95577.72;5039959;28;20418;-72
2022/09/28 06:43:24;;;;;;;7.70;1.30;;;;;;;13.12;67.28;95580.75;5045413;28;20202;-71
2022/09/28 06:45:51;;;;;;;7.07;1.60;;;;;;;13.13;67.64;95573.66;5045352;28;20207;-71
2022/09/28 06:48:17;;;;;;;7.53;1.60;;;;;;;13.15;67.66;95571.63;5038666;28;20208;-71
2022/09/28 06:50:42;;;;;;;2.13;1.30;;;;;;;13.17;67.31;95572.22;5015781;28;20431;-71
2022/09/28 06:53:12;;;;;;;3.50;1.70;;;;;;;13.19;67.78;95585.97;5021758;28;20547;-71
2022/09/28 06:55:47;;;;;;;5.90;1.53;;;;;;;13.19;67.85;95591.25;5016893;28;20200;-71
2022/09/28 06:58:14;;;;;;;2.70;1.40;;;;;;;13.24;67.65;95588.78;5038381;28;20432;-73
2022/09/28 07:00:40;;;;;;;4.50;1.50;;;;;;;13.28;67.69;95594.44;5031576;28;20565;-71
2022/09/28 07:03:09;;;;;;;2.87;1.27;;;;;;;13.29;67.32;95604.75;5038675;28;20508;-73
2022/09/28 07:05:35;;;;;;;4.33;2.00;;;;;;;13.28;67.31;95613.66;5032116;28;20254;-71
2022/09/28 07:08:02;;;;;;;5.50;1.90;;;;;;;13.28;67.41;95620.75;5021920;28;20459;-73
2022/09/28 07:10:29;;;;;;;3.77;1.70;;;;;;;13.27;67.44;95627.81;5024360;28;20444;-72
2022/09/28 07:12:55;;;;;;;3.83;1.67;;;;;;;13.19;66.58;95618.34;4996755;28;20451;-72
2022/09/28 07:15:22;;;;;;;2.20;1.50;;;;;;;13.18;67.11;95631.72;5040593;28;20442;-72
2022/09/28 07:17:47;;;;;;;7.23;1.70;;;;;;;13.20;67.47;95629.69;5033322;28;20423;-73
2022/09/28 07:20:13;;;;;;;6.23;1.70;;;;;;;13.17;67.80;95630.88;5044196;28;20500;-72
2022/09/28 07:22:39;;;;;;;4.37;1.80;;;;;;;13.22;67.72;95635.56;5015603;28;20192;-72
2022/09/28 07:25:05;;;;;;;3.73;1.67;;;;;;;13.22;67.75;95638.19;5017315;28;20181;-71
2022/09/28 07:27:31;;;;;;;4.90;1.70;;;;;;;13.27;68.00;95640.97;5039716;28;20293;-70
2022/09/28 07:29:57;;;;;;;4.50;1.70;;;;;;;13.30;67.78;95634.50;5019355;28;21022;-71
2022/09/28 07:32:23;;;;;;;4.60;1.57;;;;;;;13.33;67.26;95639.34;5043800;28;20187;-71
2022/09/28 07:34:49;;;;;;;3.20;1.70;;;;;;;13.39;67.18;95642.97;5025976;28;21029;-71
2022/09/28 07:37:17;;;;;;;2.27;1.40;;;;;;;13.41;67.03;95654.13;5034384;28;20438;-70
2022/09/28 07:42:28;;;;;;;7.43;2.10;;;;;;;13.50;67.06;95663.38;5037889;28;20455;-71
2022/09/28 07:44:55;;;;;;;4.10;1.70;;;;;;;13.52;67.06;95674.53;5043383;28;20421;-71
2022/09/28 07:47:25;;;;;;;7.97;1.77;;;;;;;13.50;66.63;95674.75;5044211;28;20520;-72
2022/09/28 07:49:56;;;;;;;4.53;1.77;;;;;;;13.50;66.69;95671.28;5041933;28;20484;-71
2022/09/28 07:52:27;;;;;;;2.40;1.47;;;;;;;13.54;66.32;95667.22;5030908;28;20434;-72
2022/09/28 07:54:52;;;;;;;3.20;1.73;;;;;;;13.59;66.28;95667.44;5031277;28;20432;-72
2022/09/28 07:57:19;;;;;;;2.37;1.73;;;;;;;13.65;66.19;95669.22;5015298;28;20482;-71
2022/09/28 07:59:44;;;;;;;2.60;1.50;;;;;;;13.70;66.25;95671.22;5017331;28;20290;-72
2022/09/28 08:02:11;;;;;;;4.40;1.30;;;;;;;13.74;65.46;95671.59;5018283;28;20423;-71
2022/09/28 08:04:36;;;;;;;2.93;1.20;;;;;;;13.75;65.46;95678.47;5013594;28;20282;-71
2022/09/28 08:07:02;;;;;;;5.83;1.50;;;;;;;13.79;65.03;95692.84;5010650;28;20465;-71
2022/09/28 08:09:28;;;;;;;2.90;1.43;;;;;;;13.85;64.89;95686.75;5012034;28;20188;-71
2022/09/28 08:11:53;;;;;;;3.20;1.60;;;;;;;13.89;65.16;95684.50;5012315;28;20185;-70
2022/09/28 08:14:19;;;;;;;4.17;2.00;;;;;;;13.92;64.63;95690.16;5012332;28;20453;-70
2022/09/28 08:16:45;;;;;;;2.23;1.83;;;;;;;13.95;64.28;95695.00;5016873;28;20215;-70
2022/09/28 08:19:10;;;;;;;3.23;1.30;;;;;;;13.92;64.20;95699.88;5023419;28;20180;-71
2022/09/28 08:21:45;;;;;;;2.50;1.47;;;;;;;14.00;64.09;95707.53;5022683;28;20230;-71
2022/09/28 08:24:14;;;;;;;2.83;1.43;;;;;;;13.99;64.05;95711.19;5016363;28;20590;-71
2022/09/28 08:26:41;;;;;;;2.83;1.30;;;;;;;13.96;63.07;95706.34;5016129;28;21533;-71
2022/09/28 08:29:07;;;;;;;1.93;1.40;;;;;;;14.02;63.28;95702.06;5020146;28;20443;-71
2022/09/28 08:31:32;;;;;;;4.90;2.30;;;;;;;14.03;63.50;95706.31;5024105;28;20799;-71
2022/09/28 08:33:58;;;;;;;5.73;1.30;;;;;;;14.07;63.54;95715.41;5023006;28;20238;-71
2022/09/28 08:36:23;;;;;;;4.33;1.60;;;;;;;14.12;63.16;95712.94;5025081;28;20247;-71
2022/09/28 08:38:49;;;;;;;2.13;1.50;;;;;;;14.18;63.21;95706.84;5019413;28;20208;-72
2022/09/28 08:41:48;;;;;;;3.00;1.70;;;;;;;14.24;63.18;95713.09;5026810;28;20291;-71
2022/09/28 08:44:18;;;;;;;5.10;1.80;;;;;;;14.35;63.04;95719.50;5023453;28;20189;-71
2022/09/28 08:46:49;;;;;;;3.57;1.80;;;;;;;14.41;62.65;95710.75;5022535;28;20507;-72
2022/09/28 08:49:24;;;;;;;3.50;1.57;;;;;;;14.47;62.40;95717.81;5025299;28;20439;-71
2022/09/28 08:51:57;;;;;;;3.53;1.43;;;;;;;14.51;61.53;95724.25;5021795;28;20427;-72
2022/09/28 08:54:22;;;;;;;4.70;1.50;;;;;;;14.66;61.05;95733.69;5026005;28;20433;-72
2022/09/28 08:56:51;;;;;;;1.70;1.40;;;;;;;14.76;61.63;95730.59;5021167;28;20436;-72
2022/09/28 08:59:24;;;;;;;5.30;1.70;;;;;;;14.86;61.35;95726.47;5027698;28;20195;-72
2022/09/28 09:01:56;;;;;;;4.13;1.73;;;;;;;14.95;61.05;95734.09;5020887;28;20423;-72
2022/09/28 09:04:21;;;;;;;3.90;1.40;;;;;;;15.04;60.45;95728.34;5021986;28;20443;-71
2022/09/28 09:06:52;;;;;;;2.20;1.57;;;;;;;15.07;59.81;95732.38;5029230;28;20453;-72
2022/09/28 09:09:30;;;;;;;2.87;1.63;;;;;;;15.08;59.38;95735.81;5028176;28;20188;-72
2022/09/28 09:12:07;;;;;;;4.50;2.23;;;;;;;15.16;59.42;95746.91;5029578;28;20426;-71
2022/09/28 09:14:41;;;;;;;9.03;3.07;;;;;;;15.20;60.22;95747.28;5024331;28;20429;-73
2022/09/28 09:17:33;;;;;;;6.27;1.90;;;;;;;15.18;59.38;95746.72;5035197;28;20446;-73
2022/09/28 09:20:16;;;;;;;3.10;1.70;;;;;;;15.19;59.51;95754.38;5037487;28;20428;-72
2022/09/28 09:22:54;;;;;;;3.40;1.73;;;;;;;15.23;60.01;95756.59;5030686;28;20425;-72
2022/09/28 09:25:24;;;;;;;3.83;1.80;;;;;;;15.17;59.58;95760.91;5027544;28;20526;-72
2022/09/28 09:28:11;;;;;;;6.33;1.93;;;;;;;15.18;59.33;95763.34;5033682;28;20485;-71
2022/09/28 09:31:02;;;;;;;5.00;1.90;;;;;;;15.10;59.18;95762.78;5018802;28;20425;-71
2022/09/28 09:33:46;;;;;;;4.03;2.40;;;;;;;15.05;58.91;95761.63;5044042;28;20425;-72
2022/09/28 09:36:49;;;;;;;3.50;1.87;;;;;;;15.02;58.83;95783.16;5027972;28;20454;-72
2022/09/28 09:39:23;;;;;;;4.20;1.80;;;;;;;15.03;58.72;95773.41;5040457;28;20418;-72
2022/09/28 09:42:04;;;;;;;4.10;2.17;;;;;;;15.04;58.40;95786.38;5038986;28;20428;-71
2022/09/28 09:44:49;;;;;;;2.23;1.90;;;;;;;15.04;58.37;95789.03;5029864;28;20922;-72
2022/09/28 09:47:38;;;;;;;5.00;2.17;;;;;;;15.01;57.97;95786.00;5045457;28;20545;-71
2022/09/28 09:50:13;;;;;;;6.17;1.87;;;;;;;14.99;57.03;95790.69;5045917;28;20429;-72
2022/09/28 09:52:56;;;;;;;4.30;1.90;;;;;;;15.05;57.49;95789.81;5043813;28;20930;-71
2022/09/28 09:55:36;;;;;;;4.70;1.90;;;;;;;15.13;57.65;95784.25;5025690;28;20434;-72
2022/09/28 09:58:25;;;;;;;3.20;2.13;;;;;;;15.21;57.79;95793.75;5031153;28;20420;-71
2022/09/28 10:00:53;;;;;;;4.23;2.00;;;;;;;15.29;58.02;95788.22;5018124;28;20459;-74
2022/09/28 10:03:24;;;;;;;5.33;2.10;;;;;;;15.40;58.61;95789.31;5019374;28;20784;-72
2022/09/28 10:06:05;;;;;;;3.80;1.87;;;;;;;15.51;57.53;95780.69;5019660;28;20448;-73
2022/09/28 10:08:34;;;;;;;3.37;1.73;;;;;;;15.56;56.29;95787.16;5013399;28;20548;-73
2022/09/28 10:11:15;;;;;;;6.33;2.07;;;;;;;15.61;55.94;95790.75;5020887;28;20431;-72
2022/09/28 10:13:41;;;;;;;4.00;2.07;;;;;;;15.62;54.83;95788.94;5029971;28;20515;-72
2022/09/28 10:16:08;;;;;;;3.07;1.77;;;;;;;15.62;53.90;95783.66;5035923;28;20443;-73
2022/09/28 10:18:34;;;;;;;2.33;1.50;;;;;;;15.66;54.32;95776.88;5037566;28;20179;-73
2022/09/28 10:20:59;;;;;;;2.70;1.57;;;;;;;15.70;54.04;95778.06;5029133;28;20431;-72
2022/09/28 10:23:27;;;;;;;6.63;1.80;;;;;;;15.75;52.95;95775.56;5043910;28;20457;-73
2022/09/28 10:25:58;;;;;;;5.10;1.67;;;;;;;15.81;53.16;95777.34;5030321;28;20215;-74
2022/09/28 10:28:39;;;;;;;4.20;1.73;;;;;;;15.90;53.24;95777.88;5037546;28;20537;-73
2022/09/28 10:31:38;;;;;;;7.13;1.70;;;;;;;15.95;52.58;95777.22;5034701;28;20425;-72
2022/09/28 10:34:06;;;;;;;6.13;1.90;;;;;;;16.07;53.06;95782.53;5023171;28;20895;-71
2022/09/28 10:36:37;;;;;;;6.73;1.83;;;;;;;16.13;52.99;95781.69;5020273;28;20469;-72
2022/09/28 10:39:04;;;;;;;3.20;1.40;;;;;;;16.16;53.37;95790.97;5031183;28;20418;-72
2022/09/28 10:41:30;;;;;;;2.23;1.30;;;;;;;16.17;54.23;95784.66;5021163;28;20434;-72
2022/09/28 10:44:07;;;;;;;1.93;1.50;;;;;;;16.26;53.75;95785.97;5029647;28;20427;-73
2022/09/28 10:46:33;;;;;;;4.17;1.70;;;;;;;16.26;52.89;95783.31;5030426;28;20492;-72
2022/09/28 10:49:06;;;;;;;3.20;1.67;;;;;;;16.23;52.97;95786.44;5027670;28;20467;-72
2022/09/28 10:51:53;;;;;;;3.37;1.73;;;;;;;16.25;51.89;95779.09;5013313;28;20414;-71
2022/09/28 10:54:27;;;;;;;5.97;2.03;;;;;;;16.13;50.95;95782.47;5032167;28;21001;-72
2022/09/28 10:56:54;;;;;;;6.37;2.00;;;;;;;16.25;51.71;95781.75;5025056;28;20507;-73
2022/09/28 10:59:39;;;;;;;4.80;1.80;;;;;;;16.33;51.50;95786.72;5034424;28;20455;-72
2022/09/28 11:02:25;;;;;;;2.80;1.47;;;;;;;16.38;50.81;95780.75;5028851;28;20423;-73
2022/09/28 11:04:56;;;;;;;3.20;1.53;;;;;;;16.47;50.60;95791.81;5039150;28;20425;-72
2022/09/28 11:07:24;;;;;;;8.50;1.90;;;;;;;16.48;49.40;95794.22;5028202;28;20828;-73
2022/09/28 11:09:51;;;;;;;4.87;1.80;;;;;;;16.42;49.17;95782.72;5029007;28;20430;-74
2022/09/28 11:12:23;;;;;;;9.80;2.00;;;;;;;16.50;49.19;95786.09;5024570;28;20466;-73
2022/09/28 11:14:54;;;;;;;4.70;1.50;;;;;;;16.58;49.94;95778.63;5030085;28;20483;-73
2022/09/28 11:17:37;;;;;;;6.50;1.80;;;;;;;16.61;50.21;95777.38;5033629;28;20522;-73
2022/09/28 11:20:24;;;;;;;3.17;1.43;;;;;;;16.69;50.65;95779.72;5035240;28;20432;-73
2022/09/28 11:22:50;;;;;;;5.10;1.70;;;;;;;16.74;49.82;95790.44;5026176;28;20427;-74
2022/09/28 11:25:16;;;;;;;4.03;1.70;;;;;;;16.71;49.65;95785.59;5023673;28;20435;-74
2022/09/28 11:27:50;;;;;;;6.83;1.90;;;;;;;16.70;49.42;95781.31;5029900;28;20468;-73
2022/09/28 11:30:23;;;;;;;3.87;1.43;;;;;;;16.76;49.31;95786.75;5027677;28;20237;-74
2022/09/28 11:32:49;;;;;;;3.13;1.30;;;;;;;16.80;48.82;95787.88;5030546;28;20805;-72
2022/09/28 11:35:22;;;;;;;5.40;1.70;;;;;;;16.81;48.64;95785.03;5035178;28;20442;-73
2022/09/28 11:38:19;;;;;;;5.50;2.77;;;;;;;16.81;48.60;95774.47;5036771;28;20803;-73
2022/09/28 11:41:08;;;;;;;4.40;1.80;;;;;;;16.91;48.67;95775.72;5034882;28;20417;-73
2022/09/28 11:43:39;;;;;;;2.43;1.60;;;;;;;16.92;48.06;95769.41;5034393;28;20430;-72
2022/09/28 11:46:14;;;;;;;5.00;1.67;;;;;;;16.95;48.51;95771.63;5028619;28;20471;-73
2022/09/28 11:48:53;;;;;;;3.43;1.60;;;;;;;17.09;48.31;95766.94;5031375;28;20460;-73
2022/09/28 11:51:26;;;;;;;3.30;1.40;;;;;;;17.18;48.88;95761.06;5039440;28;20421;-73